createdAt,value
2019-02-26T00:02:26.096Z,15.30
2019-02-26T00:04:58.566Z,15.30
2019-02-26T00:07:30.442Z,15.40
2019-02-26T00:10:04.543Z,15.50
2019-02-26T00:12:35.586Z,15.40
2019-02-26T00:15:11.286Z,15.10
2019-02-26T00:17:43.721Z,14.80
2019-02-26T00:20:15.057Z,15.00
2019-02-26T00:22:44.395Z,15.20
2019-02-26T00:25:15.332Z,15.40
2019-02-26T00:27:47.161Z,15.60
2019-02-26T00:30:18.629Z,15.80
2019-02-26T00:32:48.639Z,15.90
2019-02-26T00:35:20.654Z,16.00
2019-02-26T00:37:51.113Z,16.00
2019-02-26T00:40:21.355Z,16.10
2019-02-26T00:42:54.376Z,16.00
2019-02-26T00:45:26.953Z,15.80
2019-02-26T00:47:54.278Z,15.90
2019-02-26T00:50:24.104Z,15.90
2019-02-26T00:52:55.276Z,15.60
2019-02-26T00:55:27.436Z,15.60
2019-02-26T00:57:57.043Z,15.40
2019-02-26T01:00:29.169Z,15.00
2019-02-26T01:03:01.417Z,14.60
2019-02-26T01:05:31.289Z,14.40
2019-02-26T01:08:01.095Z,14.60
2019-02-26T01:10:30.953Z,14.50
2019-02-26T01:13:01.454Z,14.50
2019-02-26T01:15:33.110Z,14.50
2019-02-26T01:18:05.478Z,14.60
2019-02-26T01:20:34.699Z,14.50
2019-02-26T01:23:04.524Z,14.30
2019-02-26T01:25:38.265Z,14.10
2019-02-26T01:28:05.792Z,13.90
2019-02-26T01:30:36.208Z,14.00
2019-02-26T01:33:07.996Z,14.10
2019-02-26T01:35:37.863Z,13.90
2019-02-26T01:38:08.038Z,13.80
2019-02-26T01:40:41.501Z,14.00
2019-02-26T01:43:09.038Z,14.30
2019-02-26T01:45:39.024Z,14.40
2019-02-26T01:48:11.434Z,14.20
2019-02-26T01:50:40.746Z,13.90
2019-02-26T01:53:12.025Z,13.50
2019-02-26T01:55:43.679Z,13.00
2019-02-26T01:58:15.894Z,12.90
2019-02-26T02:00:44.505Z,13.10
2019-02-26T02:03:14.562Z,13.20
2019-02-26T02:05:45.825Z,13.20
2019-02-26T02:08:17.793Z,13.10
2019-02-26T02:10:47.109Z,12.80
2019-02-26T02:13:16.780Z,13.10
2019-02-26T02:15:46.608Z,13.60
2019-02-26T02:18:18.102Z,14.00
2019-02-26T02:20:49.441Z,14.10
2019-02-26T02:23:21.254Z,14.30
2019-02-26T02:25:52.378Z,14.30
2019-02-26T02:28:24.000Z,14.50
2019-02-26T02:30:55.323Z,14.30
2019-02-26T02:33:27.431Z,13.80
2019-02-26T02:35:58.017Z,13.90
2019-02-26T02:38:28.509Z,14.00
2019-02-26T02:40:58.909Z,14.40
2019-02-26T02:43:29.555Z,14.80
2019-02-26T02:46:01.359Z,14.90
2019-02-26T02:48:31.699Z,14.70
2019-02-26T02:51:05.233Z,14.30
2019-02-26T02:53:34.484Z,13.70
2019-02-26T02:56:06.380Z,13.70
2019-02-26T02:58:38.600Z,13.50
2019-02-26T03:01:08.779Z,13.50
2019-02-26T03:03:38.782Z,13.60
2019-02-26T03:06:09.699Z,14.00
2019-02-26T03:08:42.230Z,14.00
2019-02-26T03:11:13.210Z,13.60
2019-02-26T03:13:45.731Z,13.40
2019-02-26T03:16:16.816Z,13.40
2019-02-26T03:18:48.024Z,13.20
2019-02-26T03:21:20.179Z,13.00
2019-02-26T03:23:50.605Z,13.10
2019-02-26T03:26:22.831Z,13.50
2019-02-26T03:28:53.315Z,13.70
2019-02-26T03:31:28.701Z,13.90
2019-02-26T03:33:59.910Z,13.90
2019-02-26T03:36:26.354Z,14.00
2019-02-26T03:38:57.273Z,14.00
2019-02-26T03:41:28.813Z,13.70
2019-02-26T03:44:00.694Z,13.20
2019-02-26T03:46:30.131Z,12.80
2019-02-26T03:49:02.430Z,12.90
2019-02-26T03:51:31.364Z,12.80
2019-02-26T03:54:01.128Z,12.90
2019-02-26T03:56:31.245Z,13.40
2019-02-26T03:59:05.736Z,13.50
2019-02-26T04:01:32.689Z,13.10
2019-02-26T04:04:03.011Z,13.30
2019-02-26T04:06:36.010Z,13.20
2019-02-26T04:09:08.519Z,13.00
2019-02-26T04:11:39.328Z,13.10
2019-02-26T04:14:12.164Z,12.80
2019-02-26T04:16:43.430Z,12.20
2019-02-26T04:19:12.279Z,12.20
2019-02-26T04:22:20.924Z,12.30
2019-02-26T04:24:50.047Z,12.30
2019-02-26T04:27:49.649Z,12.50
2019-02-26T04:30:52.433Z,12.00
2019-02-26T04:34:04.378Z,12.40
2019-02-26T04:36:53.523Z,12.50
2019-02-26T04:39:42.935Z,12.10
2019-02-26T04:42:25.103Z,12.50
2019-02-26T04:45:16.133Z,13.10
2019-02-26T04:47:54.856Z,13.40
2019-02-26T04:50:28.756Z,13.80
2019-02-26T04:52:58.306Z,13.80
2019-02-26T04:55:29.007Z,13.50
2019-02-26T04:57:58.486Z,12.70
2019-02-26T05:00:30.413Z,12.50
2019-02-26T05:02:59.880Z,12.80
2019-02-26T05:05:32.042Z,13.00
2019-02-26T05:08:00.933Z,12.90
2019-02-26T05:10:32.285Z,12.80
2019-02-26T05:13:03.940Z,12.90
2019-02-26T05:15:33.810Z,13.10
2019-02-26T05:18:03.489Z,13.00
2019-02-26T05:20:34.077Z,13.10
2019-02-26T05:23:06.328Z,13.00
2019-02-26T05:25:37.352Z,12.90
2019-02-26T05:28:11.408Z,12.80
2019-02-26T05:30:40.423Z,12.60
2019-02-26T05:33:10.661Z,12.60
2019-02-26T05:35:41.459Z,13.10
2019-02-26T05:38:11.696Z,13.50
2019-02-26T05:40:42.763Z,13.70
2019-02-26T05:43:13.102Z,13.80
2019-02-26T05:45:43.148Z,13.90
2019-02-26T05:48:15.333Z,14.10
2019-02-26T05:50:44.879Z,14.40
2019-02-26T05:53:14.618Z,14.30
2019-02-26T05:55:47.555Z,13.70
2019-02-26T05:58:18.613Z,13.20
2019-02-26T06:00:47.182Z,12.90
2019-02-26T06:03:18.720Z,12.60
2019-02-26T06:05:48.954Z,12.60
2019-02-26T06:08:19.474Z,12.20
2019-02-26T06:10:49.197Z,11.10
2019-02-26T06:13:19.020Z,10.30
2019-02-26T06:15:51.245Z,10.10
2019-02-26T06:18:21.004Z,10.60
2019-02-26T06:20:51.686Z,10.90
2019-02-26T06:23:23.199Z,11.00
2019-02-26T06:25:55.388Z,11.10
2019-02-26T06:28:24.726Z,10.90
2019-02-26T06:30:55.187Z,11.40
2019-02-26T06:33:25.350Z,12.00
2019-02-26T06:35:57.039Z,12.50
2019-02-26T06:38:28.615Z,12.80
2019-02-26T06:40:58.150Z,12.90
2019-02-26T06:43:28.028Z,13.00
2019-02-26T06:45:57.724Z,13.40
2019-02-26T06:48:29.674Z,13.10
2019-02-26T06:51:00.428Z,12.30
2019-02-26T06:53:30.312Z,12.50
2019-02-26T06:56:00.855Z,12.90
2019-02-26T06:58:31.077Z,13.20
2019-02-26T07:01:01.187Z,13.30
2019-02-26T07:03:30.804Z,13.40
2019-02-26T07:06:03.162Z,13.10
2019-02-26T07:08:31.862Z,12.80
2019-02-26T07:11:03.659Z,12.60
2019-02-26T07:13:36.882Z,12.50
2019-02-26T07:16:07.493Z,12.50
2019-02-26T07:18:37.449Z,12.20
2019-02-26T07:21:07.383Z,11.80
2019-02-26T07:23:38.189Z,11.60
2019-02-26T07:26:08.463Z,11.20
2019-02-26T07:28:39.685Z,10.70
2019-02-26T07:31:12.018Z,10.40
2019-02-26T07:33:41.105Z,10.40
2019-02-26T07:36:10.859Z,10.40
2019-02-26T07:38:41.531Z,11.00
2019-02-26T07:41:11.829Z,11.30
2019-02-26T07:43:44.104Z,11.50
2019-02-26T07:46:14.605Z,11.60
2019-02-26T07:48:46.157Z,11.60
2019-02-26T07:51:15.946Z,11.40
2019-02-26T07:53:50.575Z,11.30
2019-02-26T07:56:17.318Z,11.30
2019-02-26T07:58:47.043Z,11.00
2019-02-26T08:01:16.793Z,10.70
2019-02-26T08:03:48.695Z,10.60
2019-02-26T08:06:18.381Z,10.50
2019-02-26T08:08:48.952Z,10.40
2019-02-26T08:11:18.864Z,10.80
2019-02-26T08:13:49.472Z,11.40
2019-02-26T08:16:20.752Z,12.00
2019-02-26T08:18:52.194Z,12.10
2019-02-26T08:21:24.743Z,12.60
2019-02-26T08:23:54.186Z,13.00
2019-02-26T08:26:24.790Z,13.70
2019-02-26T08:28:55.594Z,14.10
2019-02-26T08:31:25.994Z,14.10
2019-02-26T08:33:56.830Z,13.70
2019-02-26T08:36:26.645Z,13.40
2019-02-26T08:38:57.265Z,13.70
2019-02-26T08:41:27.265Z,14.40
2019-02-26T08:44:00.312Z,14.80
2019-02-26T08:46:30.280Z,15.20
2019-02-26T08:49:08.048Z,16.10
2019-02-26T08:51:31.974Z,17.10
2019-02-26T08:54:01.729Z,17.80
2019-02-26T08:56:33.772Z,18.50
2019-02-26T08:59:03.629Z,19.70
2019-02-26T09:01:33.531Z,20.70
2019-02-26T09:04:03.327Z,21.00
2019-02-26T09:06:33.065Z,21.40
2019-02-26T09:09:04.555Z,21.50
2019-02-26T09:11:36.367Z,21.70
2019-02-26T09:14:07.124Z,21.80
2019-02-26T09:16:36.907Z,21.50
2019-02-26T09:19:06.799Z,21.30
2019-02-26T09:21:36.928Z,21.00
2019-02-26T09:24:08.042Z,19.80
2019-02-26T09:26:37.863Z,18.40
2019-02-26T09:29:07.491Z,17.60
2019-02-26T09:31:37.380Z,16.70
2019-02-26T09:34:07.143Z,16.50
2019-02-26T09:36:36.945Z,15.90
2019-02-26T09:39:08.737Z,16.20
2019-02-26T09:41:40.199Z,16.40
2019-02-26T09:44:11.631Z,16.80
2019-02-26T09:46:43.508Z,17.10
2019-02-26T09:49:12.669Z,17.30
2019-02-26T09:51:42.620Z,16.80
2019-02-26T09:54:14.669Z,16.20
2019-02-26T09:56:43.854Z,15.30
2019-02-26T09:59:14.789Z,15.20
2019-02-26T10:01:44.831Z,15.10
2019-02-26T10:04:14.551Z,15.40
2019-02-26T10:06:44.957Z,15.50
2019-02-26T10:09:17.973Z,15.60
2019-02-26T10:11:48.809Z,15.10
2019-02-26T10:14:18.264Z,14.60
2019-02-26T10:16:50.066Z,14.10
2019-02-26T10:19:19.594Z,14.50
2019-02-26T10:21:49.403Z,15.20
2019-02-26T10:24:22.975Z,16.10
2019-02-26T10:26:50.573Z,16.80
2019-02-26T10:29:20.411Z,17.10
2019-02-26T10:31:50.456Z,17.40
2019-02-26T10:34:20.848Z,17.90
2019-02-26T10:36:51.927Z,17.80
2019-02-26T10:39:23.725Z,17.70
2019-02-26T10:41:53.003Z,17.00
2019-02-26T10:44:22.753Z,17.00
2019-02-26T10:46:52.527Z,17.30
2019-02-26T10:49:22.319Z,17.50
2019-02-26T10:51:55.604Z,17.70
2019-02-26T10:54:25.036Z,17.70
2019-02-26T10:56:54.725Z,17.90
2019-02-26T10:59:24.487Z,17.80
2019-02-26T11:01:55.285Z,16.90
2019-02-26T11:04:34.500Z,16.40
2019-02-26T11:06:59.108Z,16.80
2019-02-26T11:09:31.437Z,17.40
2019-02-26T11:12:02.901Z,17.80
2019-02-26T11:14:35.651Z,17.50
2019-02-26T11:17:03.988Z,17.00
2019-02-26T11:19:36.677Z,16.20
2019-02-26T11:22:05.146Z,16.30
2019-02-26T11:24:36.162Z,16.80
2019-02-26T11:27:06.169Z,17.40
2019-02-26T11:29:37.794Z,17.80
2019-02-26T11:32:09.728Z,17.90
2019-02-26T11:34:38.809Z,17.90
2019-02-26T11:37:08.948Z,17.90
2019-02-26T11:39:39.030Z,17.70
2019-02-26T11:42:10.452Z,17.40
2019-02-26T11:44:40.311Z,17.70
2019-02-26T11:47:11.213Z,18.30
2019-02-26T11:49:44.127Z,18.60
2019-02-26T11:52:13.407Z,18.00
2019-02-26T11:54:44.654Z,17.40
2019-02-26T11:57:15.388Z,17.30
2019-02-26T11:59:46.156Z,18.20
2019-02-26T12:02:24.976Z,18.90
2019-02-26T12:04:47.487Z,18.90
2019-02-26T12:07:17.271Z,18.60
2019-02-26T12:09:47.007Z,19.00
2019-02-26T12:12:16.726Z,19.10
2019-02-26T12:14:48.534Z,19.30
2019-02-26T12:17:17.685Z,19.60
2019-02-26T12:19:48.619Z,20.00
2019-02-26T12:22:20.495Z,20.10
2019-02-26T12:24:53.067Z,20.20
2019-02-26T12:27:23.647Z,19.60
2019-02-26T12:29:54.499Z,18.60
2019-02-26T12:32:26.836Z,17.90
2019-02-26T12:34:55.769Z,17.50
2019-02-26T12:37:25.532Z,17.80
2019-02-26T12:39:57.754Z,17.90
2019-02-26T12:42:27.324Z,18.30
2019-02-26T12:44:58.240Z,18.60
2019-02-26T12:47:28.469Z,18.90
2019-02-26T12:49:58.646Z,19.20
2019-02-26T12:52:30.386Z,19.00
2019-02-26T12:55:03.637Z,18.80
2019-02-26T12:57:31.885Z,18.50
2019-02-26T13:00:01.680Z,18.60
2019-02-26T13:02:31.438Z,18.90
2019-02-26T13:05:01.089Z,19.20
2019-02-26T13:07:30.984Z,19.60
2019-02-26T13:10:03.622Z,19.60
2019-02-26T13:12:32.566Z,19.70
2019-02-26T13:15:05.764Z,19.90
2019-02-26T13:17:34.399Z,20.00
2019-02-26T13:20:11.068Z,19.80
2019-02-26T13:22:37.879Z,19.10
2019-02-26T13:25:17.003Z,18.90
2019-02-26T13:27:43.668Z,19.10
2019-02-26T13:30:18.827Z,19.40
2019-02-26T13:33:00.502Z,19.10
2019-02-26T13:35:20.561Z,18.40
2019-02-26T13:37:52.167Z,17.70
2019-02-26T13:40:23.542Z,17.30
2019-02-26T13:45:26.201Z,16.90
2019-02-26T13:48:01.033Z,17.00
2019-02-26T13:50:32.304Z,16.80
2019-02-26T13:53:02.118Z,16.50
2019-02-26T13:55:31.881Z,16.10
2019-02-26T13:58:04.766Z,15.80
2019-02-26T14:00:32.953Z,15.60
2019-02-26T14:03:04.193Z,15.50
2019-02-26T14:05:38.190Z,15.60
2019-02-26T14:08:05.388Z,15.80
2019-02-26T14:10:35.341Z,15.70
2019-02-26T14:13:05.162Z,15.80
2019-02-26T14:15:34.918Z,16.00
2019-02-26T14:18:04.787Z,16.30
2019-02-26T14:20:34.895Z,16.60
2019-02-26T14:23:04.715Z,16.70
2019-02-26T14:25:34.428Z,17.00
2019-02-26T14:28:04.233Z,17.10
2019-02-26T14:30:34.023Z,17.30
2019-02-26T14:33:03.735Z,17.20
2019-02-26T14:35:33.455Z,16.80
2019-02-26T14:38:03.579Z,16.30
2019-02-26T14:40:33.795Z,16.00
2019-02-26T14:43:03.587Z,15.70
2019-02-26T14:45:33.362Z,15.60
2019-02-26T14:48:03.102Z,15.50
2019-02-26T14:50:33.183Z,15.50
2019-02-26T14:53:03.166Z,15.70
2019-02-26T14:55:32.936Z,16.10
2019-02-26T14:58:02.690Z,16.20
2019-02-26T15:00:34.813Z,16.00
2019-02-26T15:03:04.519Z,16.00
2019-02-26T15:05:34.225Z,15.90
2019-02-26T15:08:03.942Z,15.60
2019-02-26T15:10:33.806Z,15.40
2019-02-26T15:13:03.591Z,15.00
2019-02-26T15:15:33.410Z,14.90
2019-02-26T15:18:03.146Z,14.90
2019-02-26T15:20:33.157Z,14.80
2019-02-26T15:23:03.572Z,14.80
2019-02-26T15:25:33.549Z,14.80
2019-02-26T15:28:05.347Z,14.80
2019-02-26T15:30:34.853Z,14.90
2019-02-26T15:33:10.781Z,14.90
2019-02-26T15:35:35.902Z,15.00
2019-02-26T15:38:06.036Z,14.90
2019-02-26T15:40:35.847Z,15.00
2019-02-26T15:43:05.569Z,15.10
2019-02-26T15:45:35.578Z,15.20
2019-02-26T15:48:05.284Z,15.20
2019-02-26T15:50:37.735Z,15.20
2019-02-26T15:53:07.362Z,15.40
2019-02-26T15:55:59.192Z,15.60
2019-02-26T15:58:27.689Z,15.60
2019-02-26T16:00:57.829Z,15.40
2019-02-26T16:03:29.599Z,15.40
2019-02-26T16:05:58.923Z,15.50
2019-02-26T16:08:34.504Z,15.60
2019-02-26T16:11:00.308Z,15.90
2019-02-26T16:13:30.021Z,16.00
2019-02-26T16:16:00.071Z,16.20
2019-02-26T16:18:30.117Z,16.20
2019-02-26T16:20:59.901Z,16.10
2019-02-26T16:23:29.699Z,15.90
2019-02-26T16:25:59.439Z,15.70
2019-02-26T16:28:29.210Z,15.60
2019-02-26T16:30:58.914Z,15.40
2019-02-26T16:33:28.665Z,15.20
2019-02-26T16:35:58.398Z,15.10
2019-02-26T16:38:28.715Z,14.90
2019-02-26T16:41:00.109Z,14.80
2019-02-26T16:43:33.024Z,14.50
2019-02-26T16:46:03.385Z,14.50
2019-02-26T16:48:36.508Z,14.50
2019-02-26T16:51:06.617Z,14.60
2019-02-26T16:53:36.613Z,14.50
2019-02-26T16:56:07.863Z,14.60
2019-02-26T16:58:38.432Z,14.50
2019-02-26T17:01:09.519Z,14.70
2019-02-26T17:03:39.793Z,14.80
2019-02-26T17:06:10.245Z,14.80
2019-02-26T17:08:40.223Z,14.80
2019-02-26T17:11:13.319Z,14.80
2019-02-26T17:13:44.061Z,14.70
2019-02-26T17:16:14.215Z,14.80
2019-02-26T17:18:44.251Z,14.90
2019-02-26T17:21:14.743Z,14.90
2019-02-26T17:23:44.801Z,14.90
2019-02-26T17:26:15.991Z,14.90
2019-02-26T17:28:45.787Z,15.10
2019-02-26T17:31:15.450Z,15.20
2019-02-26T17:33:46.755Z,15.20
2019-02-26T17:36:16.592Z,15.20
2019-02-26T17:38:46.256Z,15.30
2019-02-26T17:41:15.892Z,15.70
2019-02-26T17:43:45.585Z,16.00
2019-02-26T17:46:15.379Z,16.20
2019-02-26T17:48:45.338Z,16.30
2019-02-26T17:51:18.744Z,16.40
2019-02-26T17:53:46.844Z,16.40
2019-02-26T17:56:16.483Z,16.40
2019-02-26T17:58:46.302Z,16.20
2019-02-26T18:01:16.374Z,16.00
2019-02-26T18:03:46.080Z,15.60
2019-02-26T18:06:16.273Z,15.20
2019-02-26T18:08:46.295Z,14.90
2019-02-26T18:11:15.941Z,14.70
2019-02-26T18:13:45.718Z,14.60
2019-02-26T18:16:15.916Z,14.50
2019-02-26T18:18:45.682Z,14.30
2019-02-26T18:21:15.544Z,14.20
2019-02-26T18:23:45.257Z,14.00
2019-02-26T18:26:17.615Z,13.90
2019-02-26T18:28:47.896Z,13.80
2019-02-26T18:31:26.216Z,13.80
2019-02-26T18:33:50.180Z,13.80
2019-02-26T18:36:20.239Z,13.80
2019-02-26T18:38:50.272Z,13.90
2019-02-26T18:41:20.284Z,14.10
2019-02-26T18:43:50.129Z,14.60
2019-02-26T18:46:20.201Z,15.00
2019-02-26T18:48:50.189Z,15.20
2019-02-26T18:51:19.951Z,15.10
2019-02-26T18:53:49.764Z,14.90
2019-02-26T18:56:22.847Z,14.90
2019-02-26T18:58:52.751Z,15.10
2019-02-26T19:01:22.529Z,15.60
2019-02-26T19:03:52.571Z,15.60
2019-02-26T19:06:24.655Z,15.70
2019-02-26T19:08:54.165Z,16.00
2019-02-26T19:11:25.646Z,16.20
2019-02-26T19:13:55.459Z,16.50
2019-02-26T19:16:25.379Z,16.70
2019-02-26T19:18:55.185Z,16.90
2019-02-26T19:21:24.917Z,17.40
2019-02-26T19:23:57.684Z,17.70
2019-02-26T19:26:28.266Z,18.10
2019-02-26T19:29:06.541Z,18.40
2019-02-26T19:31:37.373Z,18.60
2019-02-26T19:34:46.332Z,18.80
2019-02-26T19:37:12.014Z,18.90
2019-02-26T19:39:41.878Z,19.00
2019-02-26T19:42:11.994Z,18.60
2019-02-26T19:44:41.959Z,18.40
2019-02-26T19:47:11.560Z,18.50
2019-02-26T19:49:42.839Z,18.70
2019-02-26T19:52:13.650Z,18.80
2019-02-26T19:54:59.127Z,18.90
2019-02-26T19:57:32.391Z,18.90
2019-02-26T20:00:02.322Z,18.70
2019-02-26T20:02:32.437Z,18.00
2019-02-26T20:05:02.295Z,18.10
2019-02-26T20:07:32.585Z,18.20
2019-02-26T20:10:03.240Z,18.00
2019-02-26T20:12:33.666Z,17.60
2019-02-26T20:15:03.589Z,17.10
2019-02-26T20:17:35.346Z,16.30
2019-02-26T20:20:07.350Z,15.80
2019-02-26T20:22:37.051Z,15.60
2019-02-26T20:25:11.985Z,15.30
2019-02-26T20:27:41.862Z,15.10
2019-02-26T20:30:22.853Z,15.30
2019-02-26T20:32:52.705Z,15.80
2019-02-26T20:35:23.034Z,16.00
2019-02-26T20:37:52.857Z,16.00
2019-02-26T20:40:23.942Z,16.00
2019-02-26T20:42:53.577Z,15.70
2019-02-26T20:45:24.052Z,15.40
2019-02-26T20:47:54.372Z,15.20
2019-02-26T20:50:24.414Z,15.20
2019-02-26T20:52:54.217Z,15.10
2019-02-26T20:55:29.132Z,15.00
2019-02-26T20:57:58.827Z,14.70
2019-02-26T21:00:28.882Z,14.40
2019-02-26T21:02:59.056Z,14.10
2019-02-26T21:05:28.812Z,14.00
2019-02-26T21:07:59.128Z,14.00
2019-02-26T21:10:28.825Z,14.00
2019-02-26T21:13:01.596Z,13.90
2019-02-26T21:15:32.555Z,13.80
2019-02-26T21:18:03.739Z,13.80
2019-02-26T21:20:33.570Z,13.90
2019-02-26T21:23:03.765Z,13.90
2019-02-26T21:25:34.731Z,13.90
2019-02-26T21:28:05.390Z,13.90
2019-02-26T21:30:35.715Z,13.90
2019-02-26T21:33:05.555Z,13.80
2019-02-26T21:35:35.390Z,13.70
2019-02-26T21:38:05.939Z,13.70
2019-02-26T21:40:37.349Z,13.70
2019-02-26T21:43:07.210Z,13.70
2019-02-26T21:45:37.009Z,13.80
2019-02-26T21:48:06.884Z,13.90
2019-02-26T21:50:36.697Z,13.90
2019-02-26T21:53:06.758Z,13.90
2019-02-26T21:55:43.974Z,13.80
2019-02-26T21:58:07.838Z,13.90
2019-02-26T22:00:39.108Z,13.90
2019-02-26T22:03:09.216Z,14.00
2019-02-26T22:05:39.437Z,14.00
2019-02-26T22:08:09.461Z,14.10
2019-02-26T22:10:40.233Z,14.00
2019-02-26T22:13:10.590Z,14.00
2019-02-26T22:15:42.044Z,14.20
2019-02-26T22:18:12.543Z,14.30
2019-02-26T22:20:42.314Z,14.40
2019-02-26T22:23:12.182Z,14.20
2019-02-26T22:25:42.009Z,14.10
2019-02-26T22:28:14.124Z,14.00
2019-02-26T22:30:44.178Z,14.10
2019-02-26T22:33:13.930Z,14.10
2019-02-26T22:35:43.794Z,14.20
2019-02-26T22:38:15.455Z,14.10
2019-02-26T22:40:45.176Z,14.10
2019-02-26T22:43:15.217Z,14.20
2019-02-26T22:45:44.983Z,14.20
2019-02-26T22:48:14.684Z,14.20
2019-02-26T22:50:44.946Z,14.20
2019-02-26T22:53:14.870Z,14.10
2019-02-26T22:55:45.040Z,13.70
2019-02-26T22:58:14.827Z,13.40
2019-02-26T23:00:54.812Z,13.20
2019-02-26T23:03:24.610Z,13.10
2019-02-26T23:05:58.735Z,12.80
2019-02-26T23:08:25.860Z,12.80
2019-02-26T23:10:57.502Z,12.70
2019-02-26T23:13:31.530Z,12.60
2019-02-26T23:15:58.460Z,12.60
2019-02-26T23:18:31.057Z,12.60
2019-02-26T23:21:00.528Z,12.60
2019-02-26T23:23:30.219Z,12.80
2019-02-26T23:26:00.043Z,13.00
2019-02-26T23:28:29.830Z,13.00
2019-02-26T23:31:00.331Z,12.90
2019-02-26T23:33:30.256Z,13.00
2019-02-26T23:36:00.062Z,13.00
2019-02-26T23:38:29.807Z,12.80
2019-02-26T23:41:00.379Z,12.70
2019-02-26T23:43:30.659Z,12.50
2019-02-26T23:46:00.621Z,12.40
2019-02-26T23:48:30.575Z,12.30
2019-02-26T23:51:00.388Z,12.30
2019-02-26T23:53:33.886Z,12.50
2019-02-26T23:56:01.363Z,12.80
2019-02-26T23:58:31.671Z,13.00
